Great — TCYV6 — position and weather

sailwx.info

Track history (hours):
 
Tides and Currents Weather Stations Pressure Air Temp Water Temp Dewpoint Dewpoint Depression Visibility Wind Speed Wind Dir Waves Ship Positions

Great

Last reported at 2015-May-03 04:19 UTC. Time now 2015-May-06 00:22 UTC.
Position N 36°56' E 026°23'.

Length 187 m; draft 7.8 m.

Type: Cargo ship. MMSI: 271042241.

Date/timePositionNaut miles runAvg speedWind from/ knotsBaromVisibWave heightAir tempDewpointWater temp
2015-May-03 04:19N 36°56' E 026°23'911.9
2015-May-03 03:32N 36°51' E 026°13'1211.9
2015-May-03 02:30N 36°47' E 025°59'1111.4
2015-May-03 01:33N 36°42' E 025°46'1212.0
2015-May-03 00:32N 36°37' E 025°32'1212.0
2015-May-02 23:33N 36°33' E 025°19'1212.0
2015-May-02 22:33N 36°32' E 025°04'1212.1
2015-May-02 21:33N 36°31' E 024°49'46711.9
2015-May-01 06:27N 36°33' E 015°07'1111.9
2015-May-01 05:33N 36°34' E 014°54'1212.0
2015-May-01 04:33N 36°35' E 014°39'1211.8
2015-May-01 03:33N 36°37' E 014°25'1211.6
2015-May-01 02:33N 36°39' E 014°11'1211.6
2015-May-01 01:33N 36°40' E 013°56'1211.7
2015-May-01 00:33N 36°42' E 013°42'1212.0
2015-Apr-30 23:33N 36°45' E 013°27'1211.9
2015-Apr-30 22:33N 36°48' E 013°12'1211.7
2015-Apr-30 21:33N 36°50' E 012°58'1211.7
2015-Apr-30 20:33N 36°52' E 012°44'1211.6
2015-Apr-30 19:33N 36°55' E 012°30'1211.8
2015-Apr-30 18:32N 36°57' E 012°15'1211.7
2015-Apr-30 17:33N 37°00' E 012°01'1211.6
2015-Apr-30 16:33N 37°05' E 011°48'1311.6
2015-Apr-30 15:24N 37°11' E 011°33'42311.8
2015-Apr-29 03:29N 38°59' E 002°53'1111.5
2015-Apr-29 02:33N 39°03' E 002°41'1211.5
2015-Apr-29 01:33N 39°08' E 002°27'1211.8
2015-Apr-29 00:33N 39°13' E 002°13'1312.3
2015-Apr-28 23:32N 39°18' E 001°58'1312.1
2015-Apr-28 22:29N 39°23' E 001°43'1111.8
2015-Apr-28 21:33N 39°27' E 001°30'  
2015-Apr-26 04:33N 39°28' E 001°26'1111.1
2015-Apr-26 03:33N 39°24' E 001°39'1111.3
2015-Apr-26 02:33N 39°19' E 001°53'4611.4
2015-Apr-25 22:33N 39°01' E 002°47'1111.3
2015-Apr-25 21:33N 38°58' E 003°01'1211.4
2015-Apr-25 20:32N 38°56' E 003°16'1111.4
2015-Apr-25 19:32N 38°54' E 003°30'1211.3
2015-Apr-25 18:28N 38°52' E 003°45'10411.4
2015-Apr-25 09:19N 38°38' E 005°58'1311.5
2015-Apr-25 08:13N 38°36' E 006°14'36710.9
2015-Apr-23 22:33N 37°01' E 013°42'1211.9
2015-Apr-23 21:33N 36°55' E 013°55'1211.8
2015-Apr-23 20:33N 36°50' E 014°09'1211.6
2015-Apr-23 19:33N 36°45' E 014°21'1211.6
2015-Apr-23 18:33N 36°40' E 014°35'2611.5
2015-Apr-23 16:19N 36°34' E 015°06'3611.2
2015-Apr-23 13:04N 36°33' E 015°51'  
Track history (hours):
 
Tides and Currents Weather Stations Pressure Air Temp Water Temp Dewpoint Dewpoint Depression Visibility Wind Speed Wind Dir Waves Ship Positions

Great

Last reported at 2015-May-03 04:19 UTC. Time now 2015-May-06 00:22 UTC.
Position N 36°56' E 026°23'.

Length 187 m; draft 7.8 m.

Type: Cargo ship. MMSI: 271042241.

Date/timePositionNaut miles runAvg speedWind from/ knotsBaromVisibWave heightAir tempDewpointWater temp
2015-May-03 04:19N 36°56' E 026°23'911.9
2015-May-03 03:32N 36°51' E 026°13'1211.9
2015-May-03 02:30N 36°47' E 025°59'1111.4
2015-May-03 01:33N 36°42' E 025°46'1212.0
2015-May-03 00:32N 36°37' E 025°32'1212.0
2015-May-02 23:33N 36°33' E 025°19'1212.0
2015-May-02 22:33N 36°32' E 025°04'1212.1
2015-May-02 21:33N 36°31' E 024°49'46711.9
2015-May-01 06:27N 36°33' E 015°07'1111.9
2015-May-01 05:33N 36°34' E 014°54'1212.0
2015-May-01 04:33N 36°35' E 014°39'1211.8
2015-May-01 03:33N 36°37' E 014°25'1211.6
2015-May-01 02:33N 36°39' E 014°11'1211.6
2015-May-01 01:33N 36°40' E 013°56'1211.7
2015-May-01 00:33N 36°42' E 013°42'1212.0
2015-Apr-30 23:33N 36°45' E 013°27'1211.9
2015-Apr-30 22:33N 36°48' E 013°12'1211.7
2015-Apr-30 21:33N 36°50' E 012°58'1211.7
2015-Apr-30 20:33N 36°52' E 012°44'1211.6
2015-Apr-30 19:33N 36°55' E 012°30'1211.8
2015-Apr-30 18:32N 36°57' E 012°15'1211.7
2015-Apr-30 17:33N 37°00' E 012°01'1211.6
2015-Apr-30 16:33N 37°05' E 011°48'1311.6
2015-Apr-30 15:24N 37°11' E 011°33'42311.8
2015-Apr-29 03:29N 38°59' E 002°53'1111.5
2015-Apr-29 02:33N 39°03' E 002°41'1211.5
2015-Apr-29 01:33N 39°08' E 002°27'1211.8
2015-Apr-29 00:33N 39°13' E 002°13'1312.3
2015-Apr-28 23:32N 39°18' E 001°58'1312.1
2015-Apr-28 22:29N 39°23' E 001°43'1111.8
2015-Apr-28 21:33N 39°27' E 001°30'  
2015-Apr-26 04:33N 39°28' E 001°26'1111.1
2015-Apr-26 03:33N 39°24' E 001°39'1111.3
2015-Apr-26 02:33N 39°19' E 001°53'4611.4
2015-Apr-25 22:33N 39°01' E 002°47'1111.3
2015-Apr-25 21:33N 38°58' E 003°01'1211.4
2015-Apr-25 20:32N 38°56' E 003°16'1111.4
2015-Apr-25 19:32N 38°54' E 003°30'1211.3
2015-Apr-25 18:28N 38°52' E 003°45'10411.4
2015-Apr-25 09:19N 38°38' E 005°58'1311.5
2015-Apr-25 08:13N 38°36' E 006°14'36710.9
2015-Apr-23 22:33N 37°01' E 013°42'1211.9
2015-Apr-23 21:33N 36°55' E 013°55'1211.8
2015-Apr-23 20:33N 36°50' E 014°09'1211.6
2015-Apr-23 19:33N 36°45' E 014°21'1211.6
2015-Apr-23 18:33N 36°40' E 014°35'2611.5
2015-Apr-23 16:19N 36°34' E 015°06'3611.2
2015-Apr-23 13:04N 36°33' E 015°51'  

Dump ship's entire track history